SLC Intl Airport
, Salt Lake City
Last Weather Update:05/18/2012 10:00:00 AM
Date
ETo
ETc
Rain
Irrigation
Req
Temp
Max
Temp
Min
Temp
Avg
Avg RH
Avg Wind
Avg Solar
inches
inches
incehs
inches
F
F
F
%
%
watts/m2
04/01/2012 0.10" 0.00" 0.04" -0.03" 67.8° 36.7° 46.6° 52.8% 12.4 MPH 119.8w/m2
04/02/2012 0.16" 0.01" 0.00" 0.01" 52.5° 31.6° 42.4° 39.6% 10.0 MPH 313.1w/m2
04/03/2012 0.16" 0.01" 0.00" 0.01" 59.1° 36.4° 48.9° 44.1% 4.6 MPH 302.4w/m2
04/04/2012 0.23" 0.02" 0.00" 0.02" 72.9° 45.1° 57.5° 36.3% 8.7 MPH 285.5w/m2
04/05/2012 0.13" 0.01" 0.00" 0.01" 51.6° 38.2° 45.5° 44.5% 6.2 MPH 219.6w/m2
04/06/2012 0.10" 0.01" 0.04" -0.02" 46.6° 30.5° 38.3° 59.8% 8.8 MPH 225.2w/m2
04/07/2012 0.17" 0.02" 0.00" 0.02" 58.6° 30.2° 44.6° 39.2% 4.5 MPH 310.1w/m2
04/08/2012 0.20" 0.03" 0.00" 0.03" 69.8° 36.2° 53.7° 36.4% 3.7 MPH 316.6w/m2
04/09/2012 0.22" 0.04" 0.00" 0.04" 75.7° 45.2° 60.4° 25.5% 4.8 MPH 303.7w/m2
04/10/2012 0.24" 0.05" 0.00" 0.05" 81.3° 52.1° 65.8° 20.3% 7.4 MPH 249.2w/m2
04/11/2012 0.24" 0.05" 0.19" -0.10" 77.3° 45.6° 60.8° 33.8% 10.2 MPH 226.5w/m2
04/12/2012 0.06" 0.01" 0.54" -0.42" 50.1° 38.9° 44.3° 72.1% 7.2 MPH 76.8w/m2
04/13/2012 0.16" 0.04" 0.02" 0.02" 56.7° 38.0° 47.3° 57.2% 7.6 MPH 280.9w/m2
04/14/2012 0.10" 0.03" 0.05" -0.01" 54.0° 39.0° 45.9° 68.4% 6.0 MPH 183.1w/m2
04/15/2012 0.18" 0.05" 0.00" 0.05" 57.2° 40.1° 49.1° 48.3% 7.1 MPH 297.7w/m2
04/16/2012 0.18" 0.06" 0.00" 0.06" 61.9° 42.4° 53.2° 34.4% 4.2 MPH 300.7w/m2
04/17/2012 0.14" 0.05" 0.39" -0.27" 61.8° 44.1° 53.2° 56.5% 7.0 MPH 217.6w/m2
04/18/2012 0.09" 0.03" 0.00" 0.03" 58.9° 47.2° 53.6° 60.6% 5.6 MPH 129.9w/m2
04/19/2012 0.15" 0.06" 0.03" 0.03" 62.6° 42.7° 52.8° 61.0% 3.1 MPH 251.4w/m2
04/20/2012 0.19" 0.08" 0.00" 0.08" 69.9° 45.6° 58.6° 51.0% 4.2 MPH 299.3w/m2
04/21/2012 0.24" 0.10" 0.00" 0.10" 79.8° 50.9° 66.5° 36.4% 4.9 MPH 327.5w/m2
04/22/2012 0.23" 0.10" 0.00" 0.10" 85.5° 54.5° 70.3° 32.4% 4.3 MPH 296.3w/m2
04/23/2012 0.25" 0.12" 0.00" 0.12" 89.3° 59.6° 74.2° 25.3% 5.8 MPH 257.9w/m2
04/24/2012 0.29" 0.14" 0.00" 0.14" 86.2° 65.6° 75.7° 21.2% 6.8 MPH 287.5w/m2
04/25/2012 0.21" 0.11" 0.00" 0.11" 78.0° 59.7° 69.3° 35.4% 7.7 MPH 187.9w/m2
04/26/2012 0.23" 0.12" 0.59" -0.35" 78.6° 41.9° 65.2° 41.5% 11.0 MPH 188.2w/m2
04/27/2012 0.16" 0.09" 0.11" 0.00" 52.1° 40.4° 45.9° 52.9% 9.2 MPH 289.7w/m2
04/28/2012 0.18" 0.10" 0.00" 0.10" 54.3° 36.4° 46.5° 36.4% 4.4 MPH 362.5w/m2
04/29/2012 0.20" 0.11" 0.00" 0.11" 61.5° 44.5° 52.7° 39.8% 4.4 MPH 350.2w/m2
04/30/2012 0.22" 0.13" 0.00" 0.13" 76.0° 47.6° 62.6° 33.9% 7.1 MPH 249.3w/m2
Totals: 5.42" 1.78" 2.00" 0.18" 89.3° 30.2° 55.0° 43.2% 6.6 MPH 256.9w/m2